sensor_id;sensor_type;location;lat;lon;timestamp;P1;durP1;ratioP1;P2;durP2;ratioP2
49340;SDS011;35209;51.050;13.678;2023-03-11T00:04:39;0.40;;;0.38;;
49340;SDS011;35209;51.050;13.678;2023-03-11T00:09:41;0.65;;;0.60;;
49340;SDS011;35209;51.050;13.678;2023-03-11T00:14:43;0.50;;;0.50;;
49340;SDS011;35209;51.050;13.678;2023-03-11T00:19:44;0.65;;;0.60;;
49340;SDS011;35209;51.050;13.678;2023-03-11T00:24:46;1.02;;;0.68;;
49340;SDS011;35209;51.050;13.678;2023-03-11T00:29:48;0.60;;;0.60;;
49340;SDS011;35209;51.050;13.678;2023-03-11T00:34:50;0.98;;;0.68;;
49340;SDS011;35209;51.050;13.678;2023-03-11T00:39:51;0.60;;;0.60;;
49340;SDS011;35209;51.050;13.678;2023-03-11T00:44:53;0.70;;;0.70;;
49340;SDS011;35209;51.050;13.678;2023-03-11T00:49:55;0.80;;;0.80;;
49340;SDS011;35209;51.050;13.678;2023-03-11T00:54:57;0.88;;;0.82;;
49340;SDS011;35209;51.050;13.678;2023-03-11T01:00:00;0.90;;;0.90;;
49340;SDS011;35209;51.050;13.678;2023-03-11T01:05:03;0.93;;;0.80;;
49340;SDS011;35209;51.050;13.678;2023-03-11T01:10:06;0.90;;;0.80;;
49340;SDS011;35209;51.050;13.678;2023-03-11T01:15:13;0.98;;;0.90;;
49340;SDS011;35209;51.050;13.678;2023-03-11T01:20:22;0.80;;;0.80;;
49340;SDS011;35209;51.050;13.678;2023-03-11T01:25:24;0.50;;;0.50;;
49340;SDS011;35209;51.050;13.678;2023-03-11T01:30:27;0.55;;;0.55;;
49340;SDS011;35209;51.050;13.678;2023-03-11T01:35:30;0.70;;;0.70;;
49340;SDS011;35209;51.050;13.678;2023-03-11T01:40:37;0.50;;;0.50;;
49340;SDS011;35209;51.050;13.678;2023-03-11T01:50:55;0.77;;;0.77;;
49340;SDS011;35209;51.050;13.678;2023-03-11T01:55:57;0.80;;;0.80;;
49340;SDS011;35209;51.050;13.678;2023-03-11T02:01:00;0.77;;;0.77;;
49340;SDS011;35209;51.050;13.678;2023-03-11T02:06:04;1.30;;;0.75;;
49340;SDS011;35209;51.050;13.678;2023-03-11T02:11:11;1.35;;;1.25;;
49340;SDS011;35209;51.050;13.678;2023-03-11T02:16:18;1.73;;;1.63;;
49340;SDS011;35209;51.050;13.678;2023-03-11T02:21:24;1.30;;;1.20;;
49340;SDS011;35209;51.050;13.678;2023-03-11T02:26:33;1.30;;;1.20;;
49340;SDS011;35209;51.050;13.678;2023-03-11T02:31:41;1.45;;;1.35;;
49340;SDS011;35209;51.050;13.678;2023-03-11T02:36:45;1.48;;;1.30;;
49340;SDS011;35209;51.050;13.678;2023-03-11T02:41:48;2.38;;;1.50;;
49340;SDS011;35209;51.050;13.678;2023-03-11T02:46:50;1.50;;;1.40;;
49340;SDS011;35209;51.050;13.678;2023-03-11T02:51:55;1.42;;;1.33;;
49340;SDS011;35209;51.050;13.678;2023-03-11T02:56:57;1.05;;;1.05;;
49340;SDS011;35209;51.050;13.678;2023-03-11T03:02:01;1.30;;;1.20;;
49340;SDS011;35209;51.050;13.678;2023-03-11T03:07:03;1.33;;;1.23;;
49340;SDS011;35209;51.050;13.678;2023-03-11T03:12:05;1.40;;;1.30;;
49340;SDS011;35209;51.050;13.678;2023-03-11T03:17:09;1.30;;;1.20;;
49340;SDS011;35209;51.050;13.678;2023-03-11T03:22:12;1.50;;;1.40;;
49340;SDS011;35209;51.050;13.678;2023-03-11T03:27:15;1.73;;;1.58;;
49340;SDS011;35209;51.050;13.678;2023-03-11T03:32:17;2.17;;;2.00;;
49340;SDS011;35209;51.050;13.678;2023-03-11T03:37:19;3.97;;;3.65;;
49340;SDS011;35209;51.050;13.678;2023-03-11T03:42:21;4.90;;;4.03;;
49340;SDS011;35209;51.050;13.678;2023-03-11T03:47:25;4.07;;;3.78;;
49340;SDS011;35209;51.050;13.678;2023-03-11T03:52:27;4.55;;;4.25;;
49340;SDS011;35209;51.050;13.678;2023-03-11T03:57:29;5.50;;;5.10;;
49340;SDS011;35209;51.050;13.678;2023-03-11T04:02:31;5.28;;;4.88;;
49340;SDS011;35209;51.050;13.678;2023-03-11T04:07:34;6.13;;;5.72;;
49340;SDS011;35209;51.050;13.678;2023-03-11T04:12:38;5.75;;;5.35;;
49340;SDS011;35209;51.050;13.678;2023-03-11T04:17:41;6.22;;;5.82;;
49340;SDS011;35209;51.050;13.678;2023-03-11T04:22:43;7.35;;;6.85;;
49340;SDS011;35209;51.050;13.678;2023-03-11T04:27:45;7.75;;;7.25;;
49340;SDS011;35209;51.050;13.678;2023-03-11T04:32:50;7.40;;;6.90;;
49340;SDS011;35209;51.050;13.678;2023-03-11T04:37:53;8.13;;;7.53;;
49340;SDS011;35209;51.050;13.678;2023-03-11T04:42:56;8.07;;;7.47;;
49340;SDS011;35209;51.050;13.678;2023-03-11T04:47:58;7.50;;;7.00;;
49340;SDS011;35209;51.050;13.678;2023-03-11T04:53:01;8.23;;;7.53;;
49340;SDS011;35209;51.050;13.678;2023-03-11T04:58:03;7.93;;;7.05;;
49340;SDS011;35209;51.050;13.678;2023-03-11T05:03:06;6.07;;;5.68;;
49340;SDS011;35209;51.050;13.678;2023-03-11T05:08:12;6.90;;;6.43;;
49340;SDS011;35209;51.050;13.678;2023-03-11T05:13:14;6.85;;;6.35;;
49340;SDS011;35209;51.050;13.678;2023-03-11T05:18:15;6.93;;;6.07;;
49340;SDS011;35209;51.050;13.678;2023-03-11T05:23:18;5.85;;;5.35;;
49340;SDS011;35209;51.050;13.678;2023-03-11T05:28:21;6.07;;;5.68;;
49340;SDS011;35209;51.050;13.678;2023-03-11T05:33:26;6.22;;;5.72;;
49340;SDS011;35209;51.050;13.678;2023-03-11T05:38:33;6.28;;;5.88;;
49340;SDS011;35209;51.050;13.678;2023-03-11T05:43:36;6.20;;;5.80;;
49340;SDS011;35209;51.050;13.678;2023-03-11T05:48:38;6.65;;;6.15;;
49340;SDS011;35209;51.050;13.678;2023-03-11T05:53:44;6.47;;;5.97;;
49340;SDS011;35209;51.050;13.678;2023-03-11T05:58:55;7.35;;;6.75;;
49340;SDS011;35209;51.050;13.678;2023-03-11T06:04:00;8.35;;;7.75;;
49340;SDS011;35209;51.050;13.678;2023-03-11T06:09:03;7.95;;;7.20;;
49340;SDS011;35209;51.050;13.678;2023-03-11T06:14:05;9.90;;;9.02;;
49340;SDS011;35209;51.050;13.678;2023-03-11T06:19:07;9.95;;;9.25;;
49340;SDS011;35209;51.050;13.678;2023-03-11T06:24:14;10.18;;;9.38;;
49340;SDS011;35209;51.050;13.678;2023-03-11T06:29:17;10.13;;;9.32;;
49340;SDS011;35209;51.050;13.678;2023-03-11T06:34:21;11.75;;;10.95;;
49340;SDS011;35209;51.050;13.678;2023-03-11T06:39:25;10.15;;;9.45;;
49340;SDS011;35209;51.050;13.678;2023-03-11T06:44:28;12.73;;;11.82;;
49340;SDS011;35209;51.050;13.678;2023-03-11T06:49:29;12.50;;;11.50;;
49340;SDS011;35209;51.050;13.678;2023-03-11T06:54:31;11.80;;;10.95;;
49340;SDS011;35209;51.050;13.678;2023-03-11T06:59:34;13.18;;;12.18;;
49340;SDS011;35209;51.050;13.678;2023-03-11T07:04:37;11.77;;;10.88;;
49340;SDS011;35209;51.050;13.678;2023-03-11T07:09:42;12.27;;;11.38;;
49340;SDS011;35209;51.050;13.678;2023-03-11T07:14:47;12.70;;;11.77;;
49340;SDS011;35209;51.050;13.678;2023-03-11T07:19:52;13.82;;;12.82;;
49340;SDS011;35209;51.050;13.678;2023-03-11T07:24:54;12.68;;;11.77;;
49340;SDS011;35209;51.050;13.678;2023-03-11T07:29:59;11.82;;;10.90;;
49340;SDS011;35209;51.050;13.678;2023-03-11T07:35:02;13.57;;;12.45;;
49340;SDS011;35209;51.050;13.678;2023-03-11T07:40:04;11.38;;;10.48;;
49340;SDS011;35209;51.050;13.678;2023-03-11T07:45:07;12.82;;;11.90;;
49340;SDS011;35209;51.050;13.678;2023-03-11T07:50:09;12.60;;;11.63;;
49340;SDS011;35209;51.050;13.678;2023-03-11T07:55:11;12.65;;;11.70;;
49340;SDS011;35209;51.050;13.678;2023-03-11T08:00:13;12.00;;;11.10;;
49340;SDS011;35209;51.050;13.678;2023-03-11T08:05:16;13.35;;;12.32;;
49340;SDS011;35209;51.050;13.678;2023-03-11T08:10:18;13.45;;;12.00;;
49340;SDS011;35209;51.050;13.678;2023-03-11T08:15:20;12.85;;;11.85;;
49340;SDS011;35209;51.050;13.678;2023-03-11T08:20:22;14.73;;;13.48;;
49340;SDS011;35209;51.050;13.678;2023-03-11T08:25:24;119.93;;;49.42;;
49340;SDS011;35209;51.050;13.678;2023-03-11T08:30:26;29.45;;;26.35;;
49340;SDS011;35209;51.050;13.678;2023-03-11T08:35:28;22.40;;;20.48;;
49340;SDS011;35209;51.050;13.678;2023-03-11T08:40:30;21.13;;;19.30;;
49340;SDS011;35209;51.050;13.678;2023-03-11T08:45:32;14.50;;;13.50;;
49340;SDS011;35209;51.050;13.678;2023-03-11T08:50:34;16.30;;;14.70;;
49340;SDS011;35209;51.050;13.678;2023-03-11T08:55:53;16.25;;;15.02;;
49340;SDS011;35209;51.050;13.678;2023-03-11T09:00:55;13.07;;;11.98;;
49340;SDS011;35209;51.050;13.678;2023-03-11T09:05:58;12.63;;;11.73;;
49340;SDS011;35209;51.050;13.678;2023-03-11T09:11:02;15.63;;;14.50;;
49340;SDS011;35209;51.050;13.678;2023-03-11T09:16:03;13.68;;;12.57;;
49340;SDS011;35209;51.050;13.678;2023-03-11T09:21:06;13.85;;;12.95;;
49340;SDS011;35209;51.050;13.678;2023-03-11T09:26:08;15.18;;;14.07;;
49340;SDS011;35209;51.050;13.678;2023-03-11T09:31:10;16.13;;;14.73;;
49340;SDS011;35209;51.050;13.678;2023-03-11T09:36:13;16.45;;;15.13;;
49340;SDS011;35209;51.050;13.678;2023-03-11T09:51:56;12.52;;;11.60;;
49340;SDS011;35209;51.050;13.678;2023-03-11T09:57:04;12.77;;;11.63;;
49340;SDS011;35209;51.050;13.678;2023-03-11T10:02:14;10.02;;;9.32;;
49340;SDS011;35209;51.050;13.678;2023-03-11T10:07:19;12.35;;;11.35;;
49340;SDS011;35209;51.050;13.678;2023-03-11T10:22:54;11.07;;;10.27;;
49340;SDS011;35209;51.050;13.678;2023-03-11T10:28:07;12.30;;;10.80;;
49340;SDS011;35209;51.050;13.678;2023-03-11T10:33:18;12.05;;;11.15;;
49340;SDS011;35209;51.050;13.678;2023-03-11T10:38:29;11.75;;;10.85;;
49340;SDS011;35209;51.050;13.678;2023-03-11T10:43:40;11.13;;;10.32;;
49340;SDS011;35209;51.050;13.678;2023-03-11T10:48:46;10.98;;;10.07;;
49340;SDS011;35209;51.050;13.678;2023-03-11T10:53:57;10.25;;;9.45;;
49340;SDS011;35209;51.050;13.678;2023-03-11T10:59:01;9.70;;;9.00;;
49340;SDS011;35209;51.050;13.678;2023-03-11T11:04:10;8.82;;;8.13;;
49340;SDS011;35209;51.050;13.678;2023-03-11T11:09:28;12.32;;;11.32;;
49340;SDS011;35209;51.050;13.678;2023-03-11T11:14:41;10.05;;;9.25;;
49340;SDS011;35209;51.050;13.678;2023-03-11T11:19:48;9.60;;;8.90;;
49340;SDS011;35209;51.050;13.678;2023-03-11T11:24:54;9.82;;;8.85;;
49340;SDS011;35209;51.050;13.678;2023-03-11T11:35:11;8.27;;;7.68;;
49340;SDS011;35209;51.050;13.678;2023-03-11T11:45:27;7.50;;;6.68;;
49340;SDS011;35209;51.050;13.678;2023-03-11T11:50:46;8.95;;;8.15;;
49340;SDS011;35209;51.050;13.678;2023-03-11T11:55:51;8.73;;;8.02;;
49340;SDS011;35209;51.050;13.678;2023-03-11T12:01:14;15.05;;;7.20;;
49340;SDS011;35209;51.050;13.678;2023-03-11T12:16:58;6.53;;;5.93;;
49340;SDS011;35209;51.050;13.678;2023-03-11T12:27:22;6.05;;;5.55;;
49340;SDS011;35209;51.050;13.678;2023-03-11T12:32:33;5.43;;;5.00;;
49340;SDS011;35209;51.050;13.678;2023-03-11T12:37:39;6.25;;;5.65;;
49340;SDS011;35209;51.050;13.678;2023-03-11T12:42:41;5.55;;;5.05;;
49340;SDS011;35209;51.050;13.678;2023-03-11T12:47:42;5.47;;;4.97;;
49340;SDS011;35209;51.050;13.678;2023-03-11T12:52:53;4.63;;;4.22;;
49340;SDS011;35209;51.050;13.678;2023-03-11T12:58:31;5.68;;;5.18;;
49340;SDS011;35209;51.050;13.678;2023-03-11T13:03:44;5.80;;;5.30;;
49340;SDS011;35209;51.050;13.678;2023-03-11T13:08:52;7.13;;;6.43;;
49340;SDS011;35209;51.050;13.678;2023-03-11T13:29:43;4.38;;;4.03;;
49340;SDS011;35209;51.050;13.678;2023-03-11T13:40:18;6.45;;;5.85;;
49340;SDS011;35209;51.050;13.678;2023-03-11T13:45:35;6.45;;;5.85;;
49340;SDS011;35209;51.050;13.678;2023-03-11T13:50:42;5.53;;;5.03;;
49340;SDS011;35209;51.050;13.678;2023-03-11T13:55:48;5.75;;;5.10;;
49340;SDS011;35209;51.050;13.678;2023-03-11T14:00:54;4.78;;;4.47;;
49340;SDS011;35209;51.050;13.678;2023-03-11T14:05:59;5.68;;;5.18;;
49340;SDS011;35209;51.050;13.678;2023-03-11T14:21:20;5.70;;;5.13;;
49340;SDS011;35209;51.050;13.678;2023-03-11T14:26:23;6.17;;;5.27;;
49340;SDS011;35209;51.050;13.678;2023-03-11T14:31:30;5.03;;;4.63;;
49340;SDS011;35209;51.050;13.678;2023-03-11T14:41:54;5.05;;;4.55;;
49340;SDS011;35209;51.050;13.678;2023-03-11T14:47:05;5.18;;;4.43;;
49340;SDS011;35209;51.050;13.678;2023-03-11T14:52:20;5.93;;;5.50;;
49340;SDS011;35209;51.050;13.678;2023-03-11T14:57:38;4.78;;;4.38;;
49340;SDS011;35209;51.050;13.678;2023-03-11T15:02:48;5.15;;;4.65;;
49340;SDS011;35209;51.050;13.678;2023-03-11T15:07:58;4.93;;;4.47;;
49340;SDS011;35209;51.050;13.678;2023-03-11T15:13:03;5.28;;;4.78;;
49340;SDS011;35209;51.050;13.678;2023-03-11T15:18:18;5.00;;;4.43;;
49340;SDS011;35209;51.050;13.678;2023-03-11T15:23:23;5.13;;;4.53;;
49340;SDS011;35209;51.050;13.678;2023-03-11T15:28:29;4.15;;;3.85;;
49340;SDS011;35209;51.050;13.678;2023-03-11T15:33:33;4.75;;;4.32;;
49340;SDS011;35209;51.050;13.678;2023-03-11T15:38:35;4.75;;;4.35;;
49340;SDS011;35209;51.050;13.678;2023-03-11T15:43:44;4.80;;;4.30;;
49340;SDS011;35209;51.050;13.678;2023-03-11T15:48:48;5.20;;;4.20;;
49340;SDS011;35209;51.050;13.678;2023-03-11T15:53:50;4.50;;;4.10;;
49340;SDS011;35209;51.050;13.678;2023-03-11T15:58:52;5.28;;;4.88;;
49340;SDS011;35209;51.050;13.678;2023-03-11T16:03:54;4.70;;;4.22;;
49340;SDS011;35209;51.050;13.678;2023-03-11T16:08:56;4.72;;;4.32;;
49340;SDS011;35209;51.050;13.678;2023-03-11T16:13:58;7.53;;;4.80;;
49340;SDS011;35209;51.050;13.678;2023-03-11T16:19:00;4.93;;;4.53;;
49340;SDS011;35209;51.050;13.678;2023-03-11T16:24:03;5.43;;;4.70;;
49340;SDS011;35209;51.050;13.678;2023-03-11T16:29:05;4.82;;;4.35;;
49340;SDS011;35209;51.050;13.678;2023-03-11T16:34:19;4.32;;;3.88;;
49340;SDS011;35209;51.050;13.678;2023-03-11T16:39:21;5.25;;;4.75;;
49340;SDS011;35209;51.050;13.678;2023-03-11T16:44:23;7.32;;;6.40;;
49340;SDS011;35209;51.050;13.678;2023-03-11T16:49:25;4.57;;;4.18;;
49340;SDS011;35209;51.050;13.678;2023-03-11T16:54:27;5.47;;;4.78;;
49340;SDS011;35209;51.050;13.678;2023-03-11T16:59:28;5.85;;;4.72;;
49340;SDS011;35209;51.050;13.678;2023-03-11T17:04:30;5.57;;;5.07;;
49340;SDS011;35209;51.050;13.678;2023-03-11T17:09:34;5.57;;;5.07;;
49340;SDS011;35209;51.050;13.678;2023-03-11T17:14:36;6.15;;;5.60;;
49340;SDS011;35209;51.050;13.678;2023-03-11T17:19:41;5.65;;;5.15;;
49340;SDS011;35209;51.050;13.678;2023-03-11T17:24:43;6.60;;;6.00;;
49340;SDS011;35209;51.050;13.678;2023-03-11T17:29:45;5.53;;;5.03;;
49340;SDS011;35209;51.050;13.678;2023-03-11T17:34:47;6.72;;;6.18;;
49340;SDS011;35209;51.050;13.678;2023-03-11T17:39:49;6.18;;;5.68;;
49340;SDS011;35209;51.050;13.678;2023-03-11T17:45:00;5.80;;;5.32;;
49340;SDS011;35209;51.050;13.678;2023-03-11T17:50:03;5.57;;;5.18;;
49340;SDS011;35209;51.050;13.678;2023-03-11T17:55:06;6.25;;;5.63;;
49340;SDS011;35209;51.050;13.678;2023-03-11T18:00:08;6.53;;;5.32;;
49340;SDS011;35209;51.050;13.678;2023-03-11T18:05:14;6.55;;;5.97;;
49340;SDS011;35209;51.050;13.678;2023-03-11T18:10:19;7.85;;;7.13;;
49340;SDS011;35209;51.050;13.678;2023-03-11T18:15:21;6.38;;;5.70;;
49340;SDS011;35209;51.050;13.678;2023-03-11T18:20:24;8.40;;;7.65;;
49340;SDS011;35209;51.050;13.678;2023-03-11T18:25:26;6.38;;;5.88;;
49340;SDS011;35209;51.050;13.678;2023-03-11T18:30:28;7.13;;;6.20;;
49340;SDS011;35209;51.050;13.678;2023-03-11T18:35:30;7.50;;;6.60;;
49340;SDS011;35209;51.050;13.678;2023-03-11T18:40:33;6.65;;;6.03;;
49340;SDS011;35209;51.050;13.678;2023-03-11T18:45:34;12.30;;;9.48;;
49340;SDS011;35209;51.050;13.678;2023-03-11T18:50:39;7.40;;;5.18;;
49340;SDS011;35209;51.050;13.678;2023-03-11T18:55:41;7.20;;;5.15;;
49340;SDS011;35209;51.050;13.678;2023-03-11T19:00:44;5.45;;;4.95;;
49340;SDS011;35209;51.050;13.678;2023-03-11T19:05:46;6.72;;;6.03;;
49340;SDS011;35209;51.050;13.678;2023-03-11T19:10:51;5.18;;;4.35;;
49340;SDS011;35209;51.050;13.678;2023-03-11T19:15:54;8.00;;;5.45;;
49340;SDS011;35209;51.050;13.678;2023-03-11T19:20:59;9.05;;;6.65;;
49340;SDS011;35209;51.050;13.678;2023-03-11T19:26:02;6.93;;;6.35;;
49340;SDS011;35209;51.050;13.678;2023-03-11T19:31:04;8.38;;;7.60;;
49340;SDS011;35209;51.050;13.678;2023-03-11T19:36:07;8.52;;;7.65;;
49340;SDS011;35209;51.050;13.678;2023-03-11T19:41:10;8.27;;;7.50;;
49340;SDS011;35209;51.050;13.678;2023-03-11T19:46:16;8.80;;;7.50;;
49340;SDS011;35209;51.050;13.678;2023-03-11T19:51:19;7.53;;;6.80;;
49340;SDS011;35209;51.050;13.678;2023-03-11T19:56:21;8.88;;;7.95;;
49340;SDS011;35209;51.050;13.678;2023-03-11T20:01:23;7.53;;;6.88;;
49340;SDS011;35209;51.050;13.678;2023-03-11T20:06:28;6.63;;;5.70;;
49340;SDS011;35209;51.050;13.678;2023-03-11T20:11:30;8.25;;;5.80;;
49340;SDS011;35209;51.050;13.678;2023-03-11T20:16:32;6.30;;;5.53;;
49340;SDS011;35209;51.050;13.678;2023-03-11T20:21:34;6.00;;;5.40;;
49340;SDS011;35209;51.050;13.678;2023-03-11T20:26:39;11.90;;;5.47;;
49340;SDS011;35209;51.050;13.678;2023-03-11T20:31:41;6.40;;;5.03;;
49340;SDS011;35209;51.050;13.678;2023-03-11T20:36:47;5.43;;;4.85;;
49340;SDS011;35209;51.050;13.678;2023-03-11T20:41:51;5.80;;;5.07;;
49340;SDS011;35209;51.050;13.678;2023-03-11T20:46:52;6.32;;;5.70;;
49340;SDS011;35209;51.050;13.678;2023-03-11T20:51:55;5.95;;;5.07;;
49340;SDS011;35209;51.050;13.678;2023-03-11T20:56:57;5.22;;;4.75;;
49340;SDS011;35209;51.050;13.678;2023-03-11T21:01:59;8.38;;;4.65;;
49340;SDS011;35209;51.050;13.678;2023-03-11T21:07:01;8.30;;;5.10;;
49340;SDS011;35209;51.050;13.678;2023-03-11T21:12:03;7.82;;;5.30;;
49340;SDS011;35209;51.050;13.678;2023-03-11T21:17:06;7.30;;;6.60;;
49340;SDS011;35209;51.050;13.678;2023-03-11T21:22:10;7.15;;;6.47;;
49340;SDS011;35209;51.050;13.678;2023-03-11T21:27:12;7.70;;;7.00;;
49340;SDS011;35209;51.050;13.678;2023-03-11T21:32:27;9.57;;;7.32;;
49340;SDS011;35209;51.050;13.678;2023-03-11T21:37:29;9.35;;;7.10;;
49340;SDS011;35209;51.050;13.678;2023-03-11T21:42:30;9.43;;;7.47;;
49340;SDS011;35209;51.050;13.678;2023-03-11T21:47:32;8.20;;;7.50;;
49340;SDS011;35209;51.050;13.678;2023-03-11T21:52:34;8.48;;;7.68;;
49340;SDS011;35209;51.050;13.678;2023-03-11T21:57:36;9.10;;;8.30;;
49340;SDS011;35209;51.050;13.678;2023-03-11T22:02:37;9.10;;;8.35;;
49340;SDS011;35209;51.050;13.678;2023-03-11T22:07:39;9.45;;;8.40;;
49340;SDS011;35209;51.050;13.678;2023-03-11T22:12:41;7.60;;;6.90;;
49340;SDS011;35209;51.050;13.678;2023-03-11T22:17:43;8.43;;;6.68;;
49340;SDS011;35209;51.050;13.678;2023-03-11T22:22:45;6.70;;;6.10;;
49340;SDS011;35209;51.050;13.678;2023-03-11T22:27:46;6.97;;;5.18;;
49340;SDS011;35209;51.050;13.678;2023-03-11T22:32:48;6.28;;;5.70;;
49340;SDS011;35209;51.050;13.678;2023-03-11T22:37:50;6.88;;;4.25;;
49340;SDS011;35209;51.050;13.678;2023-03-11T22:42:52;6.40;;;3.58;;
49340;SDS011;35209;51.050;13.678;2023-03-11T22:47:53;4.05;;;3.25;;
49340;SDS011;35209;51.050;13.678;2023-03-11T22:52:55;6.15;;;3.30;;
49340;SDS011;35209;51.050;13.678;2023-03-11T22:57:57;5.07;;;3.92;;
49340;SDS011;35209;51.050;13.678;2023-03-11T23:02:59;3.65;;;2.63;;
49340;SDS011;35209;51.050;13.678;2023-03-11T23:08:01;7.55;;;3.08;;
49340;SDS011;35209;51.050;13.678;2023-03-11T23:13:02;4.18;;;2.28;;
49340;SDS011;35209;51.050;13.678;2023-03-11T23:18:04;7.50;;;2.92;;
49340;SDS011;35209;51.050;13.678;2023-03-11T23:23:06;4.65;;;2.38;;
49340;SDS011;35209;51.050;13.678;2023-03-11T23:28:09;5.70;;;2.28;;
49340;SDS011;35209;51.050;13.678;2023-03-11T23:33:11;4.82;;;2.78;;
49340;SDS011;35209;51.050;13.678;2023-03-11T23:38:12;4.72;;;2.40;;
49340;SDS011;35209;51.050;13.678;2023-03-11T23:43:14;3.40;;;2.42;;
49340;SDS011;35209;51.050;13.678;2023-03-11T23:48:16;4.05;;;2.15;;
49340;SDS011;35209;51.050;13.678;2023-03-11T23:53:18;3.65;;;2.17;;
49340;SDS011;35209;51.050;13.678;2023-03-11T23:58:23;5.38;;;2.17;;
